Time;durP1;ratioP1;P1;durP2;ratioP2;P2;SDS_P1;SDS_P2;PMS_P1;PMS_P2;Temp;Humidity;BMP_temperature;BMP_pressure;BME280_temperature;BME280_humidity;BME280_pressure;Samples;Min_cycle;Max_cycle;Signal;HPM_P1;HPM_P2
2021/12/28 00:00:08;;;;;;;62.97;21.85;;;-8.10;99.90;;;;;;4991402;28;20050;-73
2021/12/28 00:02:40;;;;;;;48.00;18.73;;;-8.10;99.90;;;;;;4989234;28;20054;-73
2021/12/28 00:05:09;;;;;;;49.65;18.05;;;-8.10;99.90;;;;;;4992378;28;20058;-74
2021/12/28 00:07:36;;;;;;;57.92;20.63;;;-8.10;99.90;;;;;;5004278;28;20133;-73
2021/12/28 00:10:07;;;;;;;53.53;18.88;;;-8.10;99.90;;;;;;4990362;28;20145;-73
2021/12/28 00:12:38;;;;;;;61.83;20.75;;;-8.10;99.90;;;;;;4991397;28;20050;-73
2021/12/28 00:15:19;;;;;;;65.22;23.30;;;-8.10;99.90;;;;;;4991999;28;20539;-74
2021/12/28 00:18:02;;;;;;;68.93;23.08;;;-8.10;99.90;;;;;;4990039;28;20050;-73
2021/12/28 00:20:34;;;;;;;64.00;21.70;;;-8.10;99.90;;;;;;4991933;28;20060;-73
2021/12/28 00:23:04;;;;;;;72.72;20.35;;;-8.10;99.90;;;;;;4991061;28;20517;-73
2021/12/28 00:25:31;;;;;;;53.30;19.58;;;-8.20;99.90;;;;;;4989140;28;20049;-73
2021/12/28 00:28:00;;;;;;;58.40;20.13;;;-8.20;99.90;;;;;;4992386;28;20388;-74
2021/12/28 00:30:29;;;;;;;49.42;19.58;;;-8.20;99.90;;;;;;4991005;28;20086;-74
2021/12/28 00:32:57;;;;;;;62.88;22.33;;;-8.30;99.90;;;;;;4990670;28;20567;-74
2021/12/28 00:35:28;;;;;;;59.83;22.75;;;-8.40;99.90;;;;;;4988152;28;20066;-74
2021/12/28 00:37:56;;;;;;;71.13;21.27;;;-8.50;99.90;;;;;;4990501;28;20054;-73
2021/12/28 00:40:25;;;;;;;41.60;19.55;;;-8.60;99.90;;;;;;4990254;28;20414;-74
2021/12/28 00:42:52;;;;;;;46.58;18.80;;;-8.70;99.90;;;;;;4990281;28;20541;-74
2021/12/28 00:45:21;;;;;;;40.00;17.88;;;-8.80;99.90;;;;;;4985674;28;20042;-74
2021/12/28 00:47:50;;;;;;;50.67;17.92;;;-8.90;99.90;;;;;;4974746;28;20609;-74
2021/12/28 00:50:19;;;;;;;45.20;17.38;;;-9.10;99.90;;;;;;4972125;28;20496;-73
2021/12/28 00:52:47;;;;;;;60.92;19.55;;;-9.10;99.90;;;;;;4981068;28;20042;-73
2021/12/28 00:55:18;;;;;;;80.13;21.77;;;-9.30;99.90;;;;;;4991567;28;20050;-73
2021/12/28 00:57:46;;;;;;;58.60;20.80;;;-9.30;99.90;;;;;;4991896;28;20498;-74
2021/12/28 01:00:18;;;;;;;73.32;19.80;;;-9.30;99.90;;;;;;4989476;28;20594;-73
2021/12/28 01:02:48;;;;;;;50.00;19.83;;;-9.30;99.90;;;;;;4982900;28;20082;-74
2021/12/28 01:05:16;;;;;;;62.25;20.73;;;-9.20;99.90;;;;;;4990120;28;20426;-73
2021/12/28 01:07:44;;;;;;;49.13;20.42;;;-9.20;99.90;;;;;;4989414;28;20465;-74
2021/12/28 01:10:15;;;;;;;50.55;17.58;;;-9.30;99.90;;;;;;5005820;28;20142;-72
2021/12/28 01:12:43;;;;;;;62.45;20.42;;;-9.30;99.90;;;;;;4979825;28;20066;-73
2021/12/28 01:15:12;;;;;;;67.00;24.60;;;-9.30;99.90;;;;;;4971606;28;20039;-74
2021/12/28 01:17:40;;;;;;;60.75;23.40;;;-9.40;99.90;;;;;;4989315;28;20050;-74
2021/12/28 01:20:12;;;;;;;53.38;21.48;;;-9.50;99.90;;;;;;4988690;28;20050;-74
2021/12/28 01:22:41;;;;;;;62.45;24.30;;;-9.70;99.90;;;;;;4990094;28;20046;-73
2021/12/28 01:25:10;;;;;;;66.57;25.55;;;-9.80;99.90;;;;;;4989976;28;20042;-74
2021/12/28 01:27:38;;;;;;;59.17;21.73;;;-9.90;99.90;;;;;;4990291;28;20511;-73
2021/12/28 01:30:10;;;;;;;73.10;23.20;;;-10.10;99.90;;;;;;4987028;28;20129;-74
2021/12/28 01:32:38;;;;;;;67.03;25.42;;;-10.20;99.90;;;;;;4989433;28;20046;-74
2021/12/28 01:35:11;;;;;;;72.63;23.23;;;-10.30;99.90;;;;;;4990646;28;20050;-73
2021/12/28 01:37:39;;;;;;;62.58;24.25;;;-10.40;99.90;;;;;;4985595;28;20450;-73
2021/12/28 01:40:15;;;;;;;65.68;23.50;;;-10.50;99.90;;;;;;4980724;28;20419;-72
2021/12/28 01:42:58;;;;;;;62.33;22.90;;;-10.50;99.90;;;;;;4993480;28;20454;-73
2021/12/28 01:45:41;;;;;;;51.22;21.23;;;-10.60;99.90;;;;;;4985718;28;20046;-73
2021/12/28 01:48:12;;;;;;;66.70;23.38;;;-10.70;99.90;;;;;;4985378;28;20530;-74
2021/12/28 01:50:42;;;;;;;57.50;22.30;;;-10.70;99.90;;;;;;4993338;28;20406;-74
2021/12/28 01:53:10;;;;;;;53.33;21.70;;;-10.80;99.90;;;;;;4993119;28;20054;-74
2021/12/28 01:55:41;;;;;;;58.53;22.00;;;-10.80;99.90;;;;;;4993545;28;20648;-73
2021/12/28 01:58:08;;;;;;;59.97;20.70;;;-10.90;99.90;;;;;;4992695;28;20050;-74
2021/12/28 02:00:38;;;;;;;58.80;20.95;;;-10.90;99.90;;;;;;4994017;28;20054;-74
2021/12/28 02:03:12;;;;;;;60.78;22.90;;;-11.00;99.90;;;;;;4992767;28;20058;-74
2021/12/28 02:05:41;;;;;;;62.53;21.50;;;-11.00;99.90;;;;;;4987273;28;20134;-74
2021/12/28 02:08:12;;;;;;;63.33;21.10;;;-11.10;99.90;;;;;;4974569;28;20052;-74
2021/12/28 02:10:40;;;;;;;55.30;22.17;;;-11.10;99.90;;;;;;4993284;28;20054;-74
2021/12/28 02:13:08;;;;;;;52.90;18.17;;;-11.20;99.90;;;;;;4994101;28;20050;-74
2021/12/28 02:15:38;;;;;;;60.95;22.08;;;-11.20;99.90;;;;;;4989941;28;20061;-73
2021/12/28 02:18:08;;;;;;;58.55;21.85;;;-11.30;99.90;;;;;;4993221;28;20057;-74
2021/12/28 02:20:38;;;;;;;56.97;21.52;;;-11.30;99.90;;;;;;4994163;28;20532;-74
2021/12/28 02:23:06;;;;;;;51.92;20.50;;;-11.30;99.90;;;;;;4993238;28;20054;-73
2021/12/28 02:25:35;;;;;;;47.08;18.63;;;-11.30;99.90;;;;;;4993045;28;20458;-74
2021/12/28 02:28:03;;;;;;;51.92;19.52;;;-11.30;99.90;;;;;;4992082;28;20070;-73
2021/12/28 02:30:31;;;;;;;54.45;19.00;;;-11.40;99.90;;;;;;4988655;28;20046;-74
2021/12/28 02:32:59;;;;;;;56.25;20.83;;;-11.40;99.90;;;;;;4976045;28;20423;-75
2021/12/28 02:35:28;;;;;;;56.47;20.83;;;-11.40;99.90;;;;;;4974789;28;20104;-73
2021/12/28 02:37:57;;;;;;;52.97;19.17;;;-11.40;99.90;;;;;;4994144;28;20046;-74
2021/12/28 02:40:28;;;;;;;49.55;19.67;;;-11.50;99.90;;;;;;4992755;28;20085;-74
2021/12/28 02:42:58;;;;;;;47.90;17.98;;;-11.50;99.90;;;;;;4992988;28;20407;-74
2021/12/28 02:45:29;;;;;;;58.47;18.85;;;-11.50;99.90;;;;;;4990581;28;20058;-75
2021/12/28 02:47:57;;;;;;;50.00;19.27;;;-11.50;99.90;;;;;;4990672;28;20054;-74
2021/12/28 02:50:28;;;;;;;49.40;19.67;;;-11.60;99.90;;;;;;4986549;28;20089;-74
2021/12/28 02:52:57;;;;;;;53.53;20.50;;;-11.60;99.90;;;;;;4986320;28;20057;-74
2021/12/28 02:55:28;;;;;;;49.47;19.30;;;-11.60;99.90;;;;;;4992927;28;20116;-74
2021/12/28 02:57:59;;;;;;;45.10;19.65;;;-11.60;99.90;;;;;;4972729;28;20055;-74
2021/12/28 03:00:34;;;;;;;51.50;19.83;;;-11.60;99.90;;;;;;4986817;28;20050;-74
2021/12/28 03:03:06;;;;;;;54.95;22.13;;;-11.60;99.90;;;;;;5005991;28;20054;-74
2021/12/28 03:05:34;;;;;;;50.58;20.42;;;-11.60;99.90;;;;;;4978709;28;20103;-74
2021/12/28 03:08:04;;;;;;;47.95;19.58;;;-11.60;99.90;;;;;;4982754;28;20038;-74
2021/12/28 03:10:32;;;;;;;55.65;20.45;;;-11.60;99.90;;;;;;4993545;28;20053;-74
2021/12/28 03:12:59;;;;;;;51.38;20.05;;;-11.60;99.90;;;;;;4991674;28;20038;-74
2021/12/28 03:15:27;;;;;;;59.80;20.88;;;-11.70;99.90;;;;;;4993359;28;20051;-74
2021/12/28 03:17:54;;;;;;;48.67;19.65;;;-11.70;99.90;;;;;;4991008;28;20051;-74
2021/12/28 03:20:22;;;;;;;57.30;21.20;;;-11.70;99.90;;;;;;4993518;28;20062;-75
2021/12/28 03:22:49;;;;;;;63.50;20.35;;;-11.70;99.90;;;;;;4990192;28;20046;-74
2021/12/28 03:25:18;;;;;;;54.03;19.27;;;-11.70;99.90;;;;;;4992915;28;20137;-75
2021/12/28 03:27:46;;;;;;;50.30;19.92;;;-11.70;99.90;;;;;;4991940;28;20534;-74
2021/12/28 03:30:17;;;;;;;56.00;20.58;;;-11.70;99.90;;;;;;4991038;28;20046;-74
2021/12/28 03:32:45;;;;;;;58.22;21.70;;;-11.70;99.90;;;;;;4992987;28;20054;-74
2021/12/28 03:35:16;;;;;;;55.50;21.83;;;-11.80;99.90;;;;;;4991185;28;20049;-74
2021/12/28 03:37:43;;;;;;;65.30;20.75;;;-11.80;99.90;;;;;;4990539;28;20527;-74
2021/12/28 03:40:14;;;;;;;123.22;37.28;;;-11.80;99.90;;;;;;4990722;28;20050;-74
2021/12/28 03:42:43;;;;;;;67.70;25.77;;;-11.80;99.90;;;;;;4989362;28;20213;-74
2021/12/28 03:45:12;;;;;;;53.42;21.65;;;-11.90;99.90;;;;;;4989827;28;20061;-74
2021/12/28 03:47:40;;;;;;;61.60;22.58;;;-11.90;99.90;;;;;;4991195;28;20522;-75
2021/12/28 03:50:11;;;;;;;59.35;20.67;;;-12.00;99.90;;;;;;4986099;28;20514;-74
2021/12/28 03:52:39;;;;;;;54.08;23.35;;;-12.00;99.90;;;;;;4991882;28;20050;-74
2021/12/28 03:55:09;;;;;;;65.82;23.25;;;-12.00;99.90;;;;;;4990321;28;20541;-74
2021/12/28 03:57:39;;;;;;;58.08;22.15;;;-12.00;99.90;;;;;;4991138;28;20054;-74
2021/12/28 04:00:13;;;;;;;54.70;19.17;;;-12.00;99.90;;;;;;4990480;28;20451;-75
2021/12/28 04:02:42;;;;;;;55.03;20.58;;;-12.00;99.90;;;;;;4989719;28;20419;-74
2021/12/28 04:05:11;;;;;;;57.53;21.70;;;-12.00;99.90;;;;;;4991067;28;20062;-74
2021/12/28 04:07:39;;;;;;;52.97;20.90;;;-11.90;99.90;;;;;;4985500;28;20090;-75
2021/12/28 04:10:10;;;;;;;50.78;19.73;;;-11.80;99.90;;;;;;4990606;28;20050;-75
2021/12/28 04:12:39;;;;;;;48.17;19.10;;;-11.80;99.90;;;;;;4990745;28;20510;-75
2021/12/28 04:15:15;;;;;;;47.45;18.25;;;-11.70;99.90;;;;;;4989306;28;20046;-76
2021/12/28 04:17:43;;;;;;;53.13;20.05;;;-11.60;99.90;;;;;;4990113;28;20101;-75
2021/12/28 04:20:15;;;;;;;58.85;22.30;;;-11.60;99.90;;;;;;4990652;28;20058;-74
2021/12/28 04:22:43;;;;;;;69.53;24.08;;;-11.50;99.90;;;;;;4987111;28;20060;-74
2021/12/28 04:25:14;;;;;;;80.47;27.08;;;-11.50;99.90;;;;;;4974548;28;20046;-75
2021/12/28 04:27:42;;;;;;;78.68;26.98;;;-11.40;99.90;;;;;;4991188;28;20050;-75
2021/12/28 04:30:14;;;;;;;93.57;29.13;;;-11.40;99.90;;;;;;4989270;28;20462;-75
2021/12/28 04:32:42;;;;;;;88.53;29.08;;;-11.30;99.90;;;;;;4991754;28;20054;-76
2021/12/28 04:35:10;;;;;;;121.72;31.13;;;-11.40;99.90;;;;;;4970553;28;20047;-74
2021/12/28 04:37:40;;;;;;;78.80;24.27;;;-11.30;99.90;;;;;;4991703;28;20046;-73
2021/12/28 04:40:10;;;;;;;84.38;24.75;;;-11.30;99.90;;;;;;4986305;28;20053;-74
2021/12/28 04:42:38;;;;;;;66.85;24.17;;;-11.40;99.90;;;;;;4991506;28;20471;-74
2021/12/28 04:45:09;;;;;;;65.70;23.90;;;-11.30;99.90;;;;;;4986028;28;20145;-73
2021/12/28 04:47:39;;;;;;;55.08;21.63;;;-11.30;99.90;;;;;;4990789;28;20046;-74
2021/12/28 04:50:09;;;;;;;71.40;22.40;;;-11.30;99.90;;;;;;4992170;28;20081;-74
2021/12/28 04:52:38;;;;;;;66.10;21.45;;;-11.20;99.90;;;;;;4991905;28;20042;-74
2021/12/28 04:55:11;;;;;;;49.25;19.92;;;-11.10;99.90;;;;;;4989127;28;20450;-74
2021/12/28 04:57:40;;;;;;;57.13;20.80;;;-11.00;99.90;;;;;;4982134;28;20137;-74
2021/12/28 05:00:12;;;;;;;59.38;21.00;;;-11.00;99.90;;;;;;4989202;28;20082;-75
2021/12/28 05:02:41;;;;;;;53.28;18.30;;;-10.90;99.90;;;;;;4983227;28;20058;-74
2021/12/28 05:05:11;;;;;;;51.28;18.48;;;-10.80;99.90;;;;;;4996597;28;20098;-74
2021/12/28 05:07:39;;;;;;;57.20;20.15;;;-10.70;99.90;;;;;;4984325;28;20050;-74
2021/12/28 05:10:08;;;;;;;47.00;18.63;;;-10.70;99.90;;;;;;4980370;28;20074;-74
2021/12/28 05:12:35;;;;;;;45.67;17.20;;;-10.60;99.90;;;;;;4976252;28;20050;-76
2021/12/28 05:15:04;;;;;;;43.13;17.40;;;-10.50;99.90;;;;;;5004266;28;20077;-76
2021/12/28 05:17:32;;;;;;;41.88;17.35;;;-10.40;99.90;;;;;;4981565;28;20077;-76
2021/12/28 05:20:01;;;;;;;45.50;18.50;;;-10.40;99.90;;;;;;4995111;28;20060;-75
2021/12/28 05:22:30;;;;;;;45.83;18.20;;;-10.30;99.90;;;;;;4992040;28;20400;-76
2021/12/28 05:24:58;;;;;;;44.47;17.92;;;-10.30;99.90;;;;;;4991646;28;20502;-76
2021/12/28 05:27:26;;;;;;;46.00;16.90;;;-10.30;99.90;;;;;;5005892;28;20526;-75
2021/12/28 05:29:53;;;;;;;44.65;17.15;;;-10.40;99.90;;;;;;4993934;28;20057;-75
2021/12/28 05:32:21;;;;;;;41.67;18.52;;;-10.40;99.90;;;;;;4988122;28;20058;-76
2021/12/28 05:34:48;;;;;;;54.22;18.08;;;-10.40;99.90;;;;;;4991201;28;20078;-75
2021/12/28 05:37:17;;;;;;;47.92;16.38;;;-10.40;99.90;;;;;;4983154;28;20077;-76
2021/12/28 05:39:44;;;;;;;40.60;15.27;;;-10.40;99.90;;;;;;4991048;28;20078;-76
2021/12/28 05:42:12;;;;;;;35.50;15.25;;;-10.40;99.90;;;;;;4992709;28;20423;-76
2021/12/28 05:44:39;;;;;;;42.97;18.05;;;-10.40;99.90;;;;;;4992275;28;20042;-75
2021/12/28 05:47:07;;;;;;;59.35;21.17;;;-10.40;99.90;;;;;;4991984;28;20050;-75
2021/12/28 05:49:35;;;;;;;48.55;18.20;;;-10.30;99.90;;;;;;4989206;28;20046;-74
2021/12/28 05:52:03;;;;;;;45.45;16.85;;;-10.30;99.90;;;;;;4994428;28;20050;-75
2021/12/28 05:54:32;;;;;;;51.10;19.27;;;-10.30;99.90;;;;;;4986679;28;20046;-76
2021/12/28 05:56:59;;;;;;;47.00;17.38;;;-10.20;99.90;;;;;;4991794;28;20786;-75
2021/12/28 05:59:29;;;;;;;54.92;16.88;;;-10.10;99.90;;;;;;4988246;28;20118;-76
2021/12/28 06:01:57;;;;;;;43.75;16.58;;;-10.00;99.90;;;;;;4990871;28;20050;-76
2021/12/28 06:04:24;;;;;;;43.33;17.88;;;-9.90;99.90;;;;;;4991387;28;20144;-74
2021/12/28 06:06:51;;;;;;;42.88;18.65;;;-9.80;99.90;;;;;;4991080;28;20857;-75
2021/12/28 06:09:19;;;;;;;42.63;18.73;;;-9.80;99.90;;;;;;4988754;28;20036;-76
2021/12/28 06:11:48;;;;;;;47.08;17.73;;;-9.70;99.90;;;;;;4997121;28;20046;-75
2021/12/28 06:14:16;;;;;;;40.15;17.15;;;-9.70;99.90;;;;;;4993289;28;20038;-76
2021/12/28 06:16:43;;;;;;;46.65;19.58;;;-9.60;99.90;;;;;;4992797;28;20046;-76
2021/12/28 06:19:11;;;;;;;41.67;19.30;;;-9.60;99.90;;;;;;4993189;28;20046;-76
2021/12/28 06:21:39;;;;;;;54.40;19.73;;;-9.60;99.90;;;;;;4989766;28;20054;-76
2021/12/28 06:24:08;;;;;;;53.22;20.40;;;-9.60;99.90;;;;;;4975756;28;20502;-75
2021/12/28 06:26:37;;;;;;;53.28;19.52;;;-9.50;99.90;;;;;;4972765;28;20141;-77
2021/12/28 06:29:08;;;;;;;47.30;18.50;;;-9.50;99.90;;;;;;4992873;28;20047;-77
2021/12/28 06:31:36;;;;;;;53.53;18.90;;;-9.50;99.90;;;;;;4991562;28;20065;-76
2021/12/28 06:34:07;;;;;;;49.92;19.83;;;-9.50;99.90;;;;;;4998311;28;20038;-74
2021/12/28 06:36:35;;;;;;;54.05;19.83;;;-9.50;99.90;;;;;;4995501;28;20064;-76
2021/12/28 06:39:02;;;;;;;55.05;20.65;;;-9.50;99.90;;;;;;4991355;28;20042;-76
2021/12/28 06:41:30;;;;;;;50.95;19.83;;;-9.50;99.90;;;;;;4993930;28;20145;-76
2021/12/28 06:43:57;;;;;;;51.67;19.92;;;-9.50;99.90;;;;;;4993736;28;20096;-74
2021/12/28 06:46:26;;;;;;;59.00;19.75;;;-9.50;99.90;;;;;;4974258;28;20046;-75
2021/12/28 06:48:53;;;;;;;50.10;19.90;;;-9.40;99.90;;;;;;4980682;28;20519;-76
2021/12/28 06:51:21;;;;;;;49.15;18.35;;;-9.40;99.90;;;;;;4975162;28;20073;-75
2021/12/28 06:53:48;;;;;;;51.33;19.90;;;-9.40;99.90;;;;;;4985764;28;20600;-76
2021/12/28 06:56:16;;;;;;;55.95;21.48;;;-9.40;99.90;;;;;;4984380;28;20414;-75
2021/12/28 06:58:43;;;;;;;46.50;18.65;;;-9.30;99.90;;;;;;4995485;28;20061;-75
2021/12/28 07:01:12;;;;;;;39.85;16.50;;;-9.30;99.90;;;;;;4987306;28;20042;-73
2021/12/28 07:03:41;;;;;;;52.67;19.33;;;-9.20;99.90;;;;;;4991614;28;20069;-74
2021/12/28 07:06:08;;;;;;;55.47;19.38;;;-9.10;99.90;;;;;;4992973;28;20042;-72
2021/12/28 07:08:36;;;;;;;46.88;18.55;;;-9.10;99.90;;;;;;5002547;28;20080;-74
2021/12/28 07:11:05;;;;;;;48.35;20.63;;;-9.00;99.90;;;;;;4981100;28;20047;-75
2021/12/28 07:13:32;;;;;;;46.17;17.75;;;-9.00;99.90;;;;;;4991483;28;20573;-74
2021/12/28 07:16:00;;;;;;;44.22;18.92;;;-8.90;99.90;;;;;;4973879;28;20503;-75
2021/12/28 07:18:30;;;;;;;52.47;20.02;;;-8.80;99.90;;;;;;4973876;28;20055;-76
2021/12/28 07:21:00;;;;;;;59.05;24.30;;;-8.70;99.90;;;;;;4991707;28;20526;-77
2021/12/28 07:23:28;;;;;;;61.17;23.67;;;-8.60;99.90;;;;;;4990569;28;20564;-76
2021/12/28 07:25:55;;;;;;;55.47;21.27;;;-8.60;99.90;;;;;;4971639;28;20051;-76
2021/12/28 07:28:24;;;;;;;53.22;21.48;;;-8.60;99.90;;;;;;4972206;28;20535;-77
2021/12/28 07:30:53;;;;;;;52.70;19.27;;;-8.50;99.90;;;;;;4983149;28;20050;-77
2021/12/28 07:33:20;;;;;;;51.47;18.75;;;-8.50;99.90;;;;;;4990500;28;20145;-77
2021/12/28 07:35:48;;;;;;;59.17;21.38;;;-8.60;99.90;;;;;;5002765;28;20403;-77
2021/12/28 07:38:17;;;;;;;42.10;18.83;;;-8.70;99.90;;;;;;4979179;28;20088;-76
2021/12/28 07:40:45;;;;;;;46.83;18.40;;;-8.70;99.90;;;;;;4976687;28;20043;-76
2021/12/28 07:43:13;;;;;;;44.58;17.63;;;-8.70;99.90;;;;;;4990493;28;20054;-78
2021/12/28 07:45:41;;;;;;;46.15;19.48;;;-8.70;99.90;;;;;;4990176;28;20058;-76
2021/12/28 07:48:09;;;;;;;40.20;17.70;;;-8.70;99.90;;;;;;4991135;28;20089;-77
2021/12/28 07:50:36;;;;;;;40.92;17.63;;;-8.70;99.90;;;;;;4990884;28;20050;-76
2021/12/28 07:53:04;;;;;;;46.38;18.05;;;-8.70;99.90;;;;;;4991696;28;20046;-77
2021/12/28 07:55:33;;;;;;;42.08;17.17;;;-8.80;99.90;;;;;;4982175;28;20061;-77
2021/12/28 07:58:01;;;;;;;43.63;17.90;;;-8.70;99.90;;;;;;4989924;28;20134;-77
2021/12/28 08:00:28;;;;;;;41.17;17.48;;;-8.60;99.90;;;;;;4989194;28;20145;-76
2021/12/28 08:02:56;;;;;;;42.88;17.67;;;-8.50;99.90;;;;;;4974516;28;20149;-77
2021/12/28 08:05:24;;;;;;;45.38;18.17;;;-8.50;99.90;;;;;;4992097;28;20057;-76
2021/12/28 08:07:52;;;;;;;46.67;18.27;;;-8.40;99.90;;;;;;4978527;28;20090;-76
2021/12/28 08:10:21;;;;;;;49.28;19.42;;;-8.40;99.90;;;;;;4991200;28;20120;-76
2021/12/28 08:12:52;;;;;;;43.50;16.92;;;-8.40;99.90;;;;;;4990009;28;20050;-78
2021/12/28 08:15:20;;;;;;;52.13;18.77;;;-8.50;99.90;;;;;;4990989;28;20042;-78
2021/12/28 08:17:47;;;;;;;45.30;17.52;;;-8.50;99.90;;;;;;4989029;28;20046;-76
2021/12/28 08:20:16;;;;;;;41.97;17.30;;;-8.50;99.90;;;;;;4979137;28;20046;-78
2021/12/28 08:22:45;;;;;;;52.67;18.80;;;-8.40;99.90;;;;;;4990729;28;20061;-79
2021/12/28 08:25:17;;;;;;;40.08;16.40;;;-8.40;99.90;;;;;;4984491;28;20141;-76
2021/12/28 08:27:45;;;;;;;40.28;17.23;;;-8.40;99.90;;;;;;4982394;28;20050;-77
2021/12/28 08:30:15;;;;;;;43.05;17.85;;;-8.30;99.90;;;;;;4986543;28;20499;-77
2021/12/28 08:32:43;;;;;;;54.85;19.13;;;-8.20;99.90;;;;;;4981171;28;20054;-75
2021/12/28 08:35:14;;;;;;;43.60;16.92;;;-8.20;99.90;;;;;;4970766;28;20042;-77
2021/12/28 08:37:42;;;;;;;43.13;17.52;;;-8.20;99.90;;;;;;4979548;28;20047;-76
2021/12/28 08:40:13;;;;;;;49.03;19.60;;;-8.20;99.90;;;;;;4989687;28;20566;-77
2021/12/28 08:42:41;;;;;;;45.97;20.27;;;-8.30;99.90;;;;;;4989643;28;20046;-77
2021/12/28 08:45:10;;;;;;;52.47;19.80;;;-8.30;99.90;;;;;;4989162;28;20053;-77
2021/12/28 08:47:40;;;;;;;53.78;21.48;;;-8.20;99.90;;;;;;4991287;28;20046;-78
2021/12/28 08:50:10;;;;;;;54.03;19.40;;;-8.30;99.90;;;;;;4990052;28;20129;-77
2021/12/28 08:52:39;;;;;;;49.47;18.83;;;-8.30;99.90;;;;;;4983905;28;20507;-79
2021/12/28 08:55:10;;;;;;;46.88;19.02;;;-8.30;99.90;;;;;;4989358;28;20046;-78
2021/12/28 08:57:38;;;;;;;49.35;20.27;;;-8.30;99.90;;;;;;4987496;28;20050;-78
2021/12/28 09:00:09;;;;;;;54.70;18.98;;;-8.30;99.90;;;;;;4981774;28;20487;-76
2021/12/28 09:02:41;;;;;;;48.90;19.52;;;-8.20;99.90;;;;;;4991198;28;20058;-75
2021/12/28 09:05:10;;;;;;;49.97;18.83;;;-8.10;99.90;;;;;;4989164;28;20100;-80
2021/12/28 09:07:37;;;;;;;50.00;19.80;;;-8.00;99.90;;;;;;4988754;28;20050;-80
2021/12/28 09:10:07;;;;;;;51.88;19.10;;;-8.00;99.90;;;;;;4985309;28;20497;-81
2021/12/28 09:12:34;;;;;;;43.75;18.50;;;-8.00;99.90;;;;;;4980550;28;20467;-78
2021/12/28 09:15:02;;;;;;;47.85;19.73;;;-7.90;99.90;;;;;;4984932;28;20058;-79
2021/12/28 09:17:30;;;;;;;46.63;19.42;;;-7.90;99.90;;;;;;4990829;28;20046;-79
2021/12/28 09:19:59;;;;;;;50.67;20.42;;;-7.90;99.90;;;;;;4989737;28;20517;-82
2021/12/28 09:22:27;;;;;;;50.28;18.80;;;-7.80;99.90;;;;;;4972543;28;20039;-80
2021/12/28 09:24:54;;;;;;;53.42;20.70;;;-7.80;99.90;;;;;;4988695;28;20051;-81
2021/12/28 09:27:22;;;;;;;54.40;19.58;;;-7.80;99.90;;;;;;4984883;28;20054;-81
2021/12/28 09:29:50;;;;;;;48.13;19.48;;;-7.90;99.90;;;;;;4985973;28;20395;-79
2021/12/28 09:32:19;;;;;;;42.47;19.42;;;-8.00;99.90;;;;;;4982404;28;20046;-80
2021/12/28 09:34:50;;;;;;;44.55;19.92;;;-8.00;99.90;;;;;;4981746;28;20046;-78
2021/12/28 09:37:22;;;;;;;52.45;18.20;;;-8.00;99.90;;;;;;4990739;28;20503;-76
2021/12/28 09:39:50;;;;;;;46.00;17.48;;;-7.90;99.90;;;;;;4988308;28;20483;-78
2021/12/28 09:42:18;;;;;;;44.60;17.42;;;-7.80;99.90;;;;;;4972724;28;20541;-79
2021/12/28 09:44:49;;;;;;;37.25;17.50;;;-7.80;99.90;;;;;;4988471;28;20050;-80
2021/12/28 09:47:17;;;;;;;43.35;18.73;;;-7.80;99.90;;;;;;4987947;28;20042;-79
2021/12/28 09:49:46;;;;;;;40.97;17.83;;;-7.70;99.90;;;;;;4990223;28;20046;-78
2021/12/28 09:52:14;;;;;;;45.80;17.38;;;-7.70;99.90;;;;;;4988729;28;20137;-78
2021/12/28 09:54:44;;;;;;;46.85;19.10;;;-7.60;99.90;;;;;;4988592;28;20171;-78
2021/12/28 09:57:15;;;;;;;48.53;17.83;;;-7.50;99.90;;;;;;4988684;28;20124;-76
2021/12/28 09:59:43;;;;;;;43.05;17.80;;;-7.50;99.90;;;;;;4985052;28;20503;-76
2021/12/28 10:02:11;;;;;;;41.92;17.42;;;-7.50;99.90;;;;;;4990291;28;20053;-76
2021/12/28 10:04:49;;;;;;;44.67;17.10;;;-7.50;99.90;;;;;;4992220;28;20059;-75
2021/12/28 10:07:19;;;;;;;42.92;18.17;;;-7.50;99.90;;;;;;4976490;28;20150;-76
2021/12/28 10:09:49;;;;;;;42.60;17.45;;;-7.50;99.90;;;;;;4992784;28;20057;-76
2021/12/28 10:12:29;;;;;;;44.30;18.40;;;-7.40;99.90;;;;;;4985509;28;20038;-75
2021/12/28 10:15:00;;;;;;;50.20;18.08;;;-7.40;99.90;;;;;;4991210;28;20526;-76
2021/12/28 10:17:31;;;;;;;53.30;18.98;;;-7.40;99.90;;;;;;4992230;28;20054;-76
2021/12/28 10:20:01;;;;;;;44.03;17.33;;;-7.30;99.90;;;;;;4992759;28;20054;-78
2021/12/28 10:22:34;;;;;;;50.47;17.00;;;-7.20;99.90;;;;;;4991759;28;20082;-77
2021/12/28 10:25:09;;;;;;;52.83;19.40;;;-7.20;99.90;;;;;;4993099;28;20046;-78
2021/12/28 10:27:39;;;;;;;41.47;18.08;;;-7.20;99.90;;;;;;4992617;28;20042;-79
2021/12/28 10:30:15;;;;;;;49.58;18.98;;;-7.10;99.90;;;;;;4994013;28;20510;-77
2021/12/28 10:32:45;;;;;;;46.83;17.83;;;-7.00;99.90;;;;;;4987135;28;20061;-77
2021/12/28 10:35:18;;;;;;;44.45;16.60;;;-6.90;99.90;;;;;;4981302;28;20499;-76
2021/12/28 10:37:50;;;;;;;44.55;18.13;;;-6.90;99.90;;;;;;4992485;28;20050;-76
2021/12/28 10:40:30;;;;;;;43.00;18.75;;;-7.00;99.90;;;;;;4993598;28;20137;-75
2021/12/28 10:43:06;;;;;;;54.92;19.42;;;-7.00;99.90;;;;;;4984889;28;20601;-77
2021/12/28 10:45:39;;;;;;;47.47;18.15;;;-7.10;99.90;;;;;;4981588;28;20046;-76
2021/12/28 10:48:16;;;;;;;55.45;18.42;;;-7.20;99.90;;;;;;4993733;28;20134;-77
2021/12/28 10:50:49;;;;;;;45.88;18.02;;;-7.20;99.90;;;;;;4974623;28;20050;-78
2021/12/28 10:53:23;;;;;;;;;;;-7.20;99.90;;;;;;4992708;28;20058;-77
2021/12/28 10:55:57;;;;;;;40.63;16.55;;;-7.10;99.90;;;;;;4991243;28;19973;-78
2021/12/28 10:58:31;;;;;;;51.75;18.60;;;-7.10;99.90;;;;;;4987586;28;20063;-77
2021/12/28 11:01:08;;;;;;;47.28;18.65;;;-6.90;99.90;;;;;;4990265;28;20062;-78
2021/12/28 11:03:37;;;;;;;50.30;20.48;;;-6.90;99.90;;;;;;4991800;28;20055;-76
2021/12/28 11:06:15;;;;;;;45.75;19.38;;;-7.00;99.90;;;;;;4991683;28;20132;-76
2021/12/28 11:08:44;;;;;;;55.42;20.08;;;-6.90;99.90;;;;;;4987910;28;20506;-79
2021/12/28 11:11:17;;;;;;;50.95;19.58;;;-6.80;99.90;;;;;;4989144;28;20483;-78
2021/12/28 11:13:46;;;;;;;52.42;20.55;;;-6.90;99.90;;;;;;4969898;28;20411;-79
2021/12/28 11:16:18;;;;;;;52.42;21.27;;;-7.00;99.90;;;;;;4989970;28;20054;-79
2021/12/28 11:18:49;;;;;;;62.03;21.48;;;-7.10;99.90;;;;;;4992089;28;20129;-79
2021/12/28 11:21:20;;;;;;;52.30;20.10;;;-7.00;99.90;;;;;;4988637;28;20090;-78
2021/12/28 11:23:51;;;;;;;56.83;20.98;;;-7.00;99.90;;;;;;4982872;28;20157;-79
2021/12/28 11:26:24;;;;;;;48.33;18.73;;;-7.00;99.90;;;;;;4991661;28;20073;-77
2021/12/28 11:28:57;;;;;;;50.95;19.88;;;-7.00;99.90;;;;;;4987254;28;20411;-77
2021/12/28 11:31:26;;;;;;;;;;;-6.90;99.90;;;;;;4989200;28;20051;-77
2021/12/28 11:34:02;;;;;;;52.60;21.08;;;-6.90;99.90;;;;;;4987832;28;19932;-77
2021/12/28 11:36:33;;;;;;;50.22;20.00;;;-7.00;99.90;;;;;;4987015;28;20051;-77
2021/12/28 11:39:04;;;;;;;48.05;18.30;;;-6.90;99.90;;;;;;4990765;28;20050;-77
2021/12/28 11:41:34;;;;;;;45.05;19.02;;;-6.90;99.90;;;;;;4990016;28;20141;-76
2021/12/28 11:44:02;;;;;;;55.15;22.40;;;-6.90;99.90;;;;;;4991502;28;20041;-78
2021/12/28 11:46:30;;;;;;;43.70;17.60;;;-7.00;99.90;;;;;;4989476;28;20060;-77
2021/12/28 11:48:58;;;;;;;46.03;19.20;;;-7.00;99.90;;;;;;4991517;28;20058;-78
2021/12/28 11:51:27;;;;;;;51.50;18.92;;;-7.10;99.90;;;;;;4986445;28;20412;-77
2021/12/28 11:53:56;;;;;;;47.25;18.63;;;-7.10;99.90;;;;;;4987291;28;20043;-77
2021/12/28 11:56:29;;;;;;;44.25;20.33;;;-7.00;99.90;;;;;;4988925;28;20050;-78
2021/12/28 11:59:04;;;;;;;38.67;18.65;;;-7.00;99.90;;;;;;4991083;28;20061;-77
2021/12/28 12:01:45;;;;;;;47.80;19.80;;;-7.00;99.90;;;;;;4984957;28;20513;-78
2021/12/28 12:04:58;;;;;;;43.33;18.88;;;-7.00;99.90;;;;;;4981816;28;20044;-77
2021/12/28 12:07:31;;;;;;;44.90;19.15;;;-7.00;99.90;;;;;;4977577;28;20097;-76
2021/12/28 12:10:27;;;;;;;43.38;17.67;;;-7.00;99.90;;;;;;4988240;28;20054;-79
2021/12/28 12:13:07;;;;;;;49.08;19.48;;;-7.00;99.90;;;;;;4985366;28;20046;-79
2021/12/28 12:15:41;;;;;;;46.40;21.10;;;-7.00;99.90;;;;;;4987533;28;20050;-77
2021/12/28 12:18:19;;;;;;;46.22;19.55;;;-7.00;99.90;;;;;;4978313;28;20042;-79
2021/12/28 12:20:51;;;;;;;47.83;17.45;;;-6.90;99.90;;;;;;4984530;28;20115;-78
2021/12/28 12:23:23;;;;;;;45.88;19.15;;;-6.90;99.90;;;;;;4987401;28;20050;-78
2021/12/28 12:26:02;;;;;;;42.13;18.48;;;-6.80;99.90;;;;;;4981436;28;20054;-81
2021/12/28 12:28:47;;;;;;;37.55;17.60;;;-6.70;99.90;;;;;;4988529;28;20046;-77
2021/12/28 12:31:36;;;;;;;44.88;18.48;;;-6.70;99.90;;;;;;4988292;28;20150;-79
2021/12/28 12:34:07;;;;;;;42.83;18.60;;;-6.70;99.90;;;;;;4989298;28;20066;-78
2021/12/28 12:36:41;;;;;;;45.47;19.67;;;-6.70;99.90;;;;;;4986170;28;20527;-77